createdAt,value
2018-12-12T00:00:44.602Z,7.09
2018-12-12T00:03:13.912Z,7.00
2018-12-12T00:05:43.169Z,6.86
2018-12-12T00:08:12.339Z,7.21
2018-12-12T00:10:41.545Z,7.22
2018-12-12T00:13:10.783Z,6.73
2018-12-12T00:15:40.712Z,6.49
2018-12-12T00:18:10.366Z,6.79
2018-12-12T00:20:39.769Z,6.87
2018-12-12T00:23:09.061Z,6.97
2018-12-12T00:25:38.406Z,7.19
2018-12-12T00:28:07.569Z,7.59
2018-12-12T00:30:37.034Z,7.83
2018-12-12T00:33:06.269Z,7.95
2018-12-12T00:35:35.580Z,7.75
2018-12-12T00:38:04.868Z,7.82
2018-12-12T00:40:34.067Z,7.87
2018-12-12T00:43:03.428Z,7.94
2018-12-12T00:45:33.000Z,8.03
2018-12-12T00:48:02.378Z,7.90
2018-12-12T00:50:31.946Z,7.74
2018-12-12T00:53:01.081Z,7.64
2018-12-12T00:55:30.312Z,7.67
2018-12-12T00:57:59.597Z,7.80
2018-12-12T01:00:28.903Z,7.68
2018-12-12T01:02:58.273Z,7.69
2018-12-12T01:05:27.693Z,7.71
2018-12-12T01:07:57.068Z,7.77
2018-12-12T01:10:26.355Z,7.77
2018-12-12T01:12:55.629Z,7.66
2018-12-12T01:15:25.033Z,7.75
2018-12-12T01:17:54.697Z,7.92
2018-12-12T01:20:24.002Z,7.93
2018-12-12T01:22:53.309Z,7.83
2018-12-12T01:25:23.632Z,7.72
2018-12-12T01:27:53.152Z,7.63
2018-12-12T01:30:22.533Z,7.60
2018-12-12T01:32:51.743Z,7.39
2018-12-12T01:35:20.826Z,7.19
2018-12-12T01:37:49.937Z,7.03
2018-12-12T01:40:19.333Z,6.94
2018-12-12T01:42:48.516Z,7.07
2018-12-12T01:45:18.205Z,7.22
2018-12-12T01:47:47.567Z,7.24
2018-12-12T01:50:16.736Z,7.23
2018-12-12T01:52:46.040Z,7.13
2018-12-12T01:55:15.174Z,7.23
2018-12-12T01:57:44.429Z,7.03
2018-12-12T02:00:13.729Z,6.95
2018-12-12T02:02:43.057Z,6.75
2018-12-12T02:05:12.858Z,6.86
2018-12-12T02:07:42.228Z,6.93
2018-12-12T02:10:11.443Z,6.89
2018-12-12T02:12:40.884Z,6.81
2018-12-12T02:15:10.123Z,6.84
2018-12-12T02:17:39.336Z,7.03
2018-12-12T02:20:08.612Z,7.15
2018-12-12T02:22:37.952Z,7.28
2018-12-12T02:25:07.518Z,7.36
2018-12-12T02:27:36.704Z,7.34
2018-12-12T02:30:06.404Z,7.13
2018-12-12T02:32:35.682Z,7.09
2018-12-12T02:35:05.004Z,7.12
2018-12-12T02:37:34.441Z,7.00
2018-12-12T02:40:04.004Z,6.92
2018-12-12T02:42:33.223Z,6.91
2018-12-12T02:45:02.491Z,7.04
2018-12-12T02:47:31.660Z,7.20
2018-12-12T02:50:01.146Z,7.30
2018-12-12T02:52:30.447Z,7.44
2018-12-12T02:54:59.675Z,7.34
2018-12-12T02:57:28.886Z,7.50
2018-12-12T02:59:58.293Z,7.54
2018-12-12T03:02:27.674Z,7.42
2018-12-12T03:04:56.858Z,7.43
2018-12-12T03:07:25.956Z,7.45
2018-12-12T03:09:55.091Z,7.42
2018-12-12T03:12:24.330Z,7.38
2018-12-12T03:14:53.439Z,7.31
2018-12-12T03:17:22.496Z,7.35
2018-12-12T03:19:51.759Z,7.44
2018-12-12T03:22:21.058Z,7.40
2018-12-12T03:24:50.357Z,7.35
2018-12-12T03:27:19.561Z,7.47
2018-12-12T03:29:48.813Z,7.56
2018-12-12T03:32:17.933Z,7.53
2018-12-12T03:34:47.077Z,7.59
2018-12-12T03:37:16.252Z,7.55
2018-12-12T03:39:45.566Z,7.70
2018-12-12T03:42:14.740Z,7.73
2018-12-12T03:44:43.947Z,7.47
2018-12-12T03:47:13.870Z,6.68
2018-12-12T03:49:43.538Z,6.20
2018-12-12T03:52:12.599Z,6.66
2018-12-12T03:54:41.980Z,7.02
2018-12-12T03:57:11.195Z,7.24
2018-12-12T03:59:40.579Z,6.45
2018-12-12T04:02:09.772Z,6.38
2018-12-12T04:04:39.004Z,6.76
2018-12-12T04:07:08.164Z,6.99
2018-12-12T04:09:37.361Z,7.21
2018-12-12T04:12:06.493Z,7.34
2018-12-12T04:14:35.864Z,7.31
2018-12-12T04:17:05.222Z,7.31
2018-12-12T04:19:34.508Z,7.26
2018-12-12T04:22:03.613Z,6.26
2018-12-12T04:24:33.264Z,6.46
2018-12-12T04:27:02.544Z,6.65
2018-12-12T04:29:31.797Z,6.82
2018-12-12T04:32:01.069Z,6.85
2018-12-12T04:34:30.462Z,6.88
2018-12-12T04:36:59.891Z,6.43
2018-12-12T04:39:29.121Z,5.46
2018-12-12T04:41:58.758Z,5.62
2018-12-12T04:44:28.291Z,6.14
2018-12-12T04:46:57.595Z,6.45
2018-12-12T04:49:26.890Z,6.70
2018-12-12T04:51:56.325Z,6.71
2018-12-12T04:54:25.652Z,6.50
2018-12-12T04:56:54.799Z,6.37
2018-12-12T04:59:24.308Z,6.48
2018-12-12T05:01:53.586Z,6.55
2018-12-12T05:04:22.785Z,6.68
2018-12-12T05:06:52.140Z,6.76
2018-12-12T05:09:21.259Z,6.76
2018-12-12T05:11:50.845Z,6.77
2018-12-12T05:14:20.112Z,6.78
2018-12-12T05:16:49.492Z,6.74
2018-12-12T05:19:18.760Z,6.72
2018-12-12T05:21:48.116Z,6.73
2018-12-12T05:24:17.476Z,6.68
2018-12-12T05:26:46.705Z,6.55
2018-12-12T05:29:16.036Z,6.26
2018-12-12T05:31:45.443Z,6.36
2018-12-12T05:34:14.679Z,6.43
2018-12-12T05:36:44.016Z,6.08
2018-12-12T05:39:13.208Z,6.10
2018-12-12T05:41:42.645Z,6.28
2018-12-12T05:44:11.751Z,6.33
2018-12-12T05:46:42.013Z,6.30
2018-12-12T05:49:11.423Z,6.37
2018-12-12T05:51:40.696Z,6.34
2018-12-12T05:54:09.764Z,6.26
2018-12-12T05:56:39.242Z,6.38
2018-12-12T05:59:08.555Z,6.60
2018-12-12T06:01:38.007Z,6.67
2018-12-12T06:04:07.428Z,6.58
2018-12-12T06:06:36.755Z,6.46
2018-12-12T06:09:08.894Z,6.46
2018-12-12T06:11:38.904Z,6.56
2018-12-12T06:14:08.387Z,6.55
2018-12-12T06:16:37.525Z,6.49
2018-12-12T06:19:06.753Z,6.47
2018-12-12T06:21:36.031Z,6.61
2018-12-12T06:24:05.330Z,6.66
2018-12-12T06:26:37.427Z,6.54
2018-12-12T06:29:06.071Z,6.32
2018-12-12T06:31:35.472Z,6.40
2018-12-12T06:34:04.676Z,6.39
2018-12-12T06:36:33.868Z,6.58
2018-12-12T06:39:04.369Z,6.68
2018-12-12T06:41:33.478Z,6.72
2018-12-12T06:44:02.876Z,6.62
2018-12-12T06:46:32.123Z,6.61
2018-12-12T06:49:01.412Z,6.51
2018-12-12T06:51:30.596Z,6.58
2018-12-12T06:53:59.988Z,6.39
2018-12-12T06:56:29.383Z,6.28
2018-12-12T06:58:59.611Z,6.44
2018-12-12T07:01:28.794Z,6.49
2018-12-12T07:03:57.936Z,6.53
2018-12-12T07:06:27.525Z,6.45
2018-12-12T07:08:56.954Z,6.13
2018-12-12T07:11:26.211Z,6.02
2018-12-12T07:13:55.447Z,5.90
2018-12-12T07:16:24.959Z,5.78
2018-12-12T07:18:54.230Z,5.76
2018-12-12T07:21:23.504Z,5.90
2018-12-12T07:23:52.824Z,6.02
2018-12-12T07:26:21.968Z,5.95
2018-12-12T07:28:51.575Z,5.88
2018-12-12T07:31:20.807Z,5.68
2018-12-12T07:33:49.943Z,5.58
2018-12-12T07:36:19.071Z,5.64
2018-12-12T07:38:48.571Z,5.67
2018-12-12T07:41:17.956Z,5.85
2018-12-12T07:43:47.532Z,6.00
2018-12-12T07:46:18.486Z,6.06
2018-12-12T07:48:48.145Z,6.17
2018-12-12T07:51:17.786Z,6.43
2018-12-12T07:53:47.165Z,6.56
2018-12-12T07:56:16.811Z,6.63
2018-12-12T07:58:46.528Z,6.73
2018-12-12T08:01:16.334Z,6.90
2018-12-12T08:03:46.244Z,7.11
2018-12-12T08:06:15.586Z,7.37
2018-12-12T08:08:44.942Z,7.49
2018-12-12T08:11:14.659Z,7.54
2018-12-12T08:13:44.071Z,7.50
2018-12-12T08:16:13.731Z,7.61
2018-12-12T08:18:43.135Z,7.52
2018-12-12T08:21:12.410Z,7.50
2018-12-12T08:23:41.654Z,7.56
2018-12-12T08:26:11.088Z,7.51
2018-12-12T08:28:41.150Z,7.47
2018-12-12T08:31:11.013Z,6.71
2018-12-12T08:33:40.248Z,6.44
2018-12-12T08:36:09.620Z,7.22
2018-12-12T08:38:39.100Z,6.98
2018-12-12T08:41:08.276Z,7.20
2018-12-12T08:43:37.603Z,7.75
2018-12-12T08:46:07.224Z,8.30
2018-12-12T08:48:36.529Z,8.55
2018-12-12T08:51:05.936Z,8.73
2018-12-12T08:53:35.280Z,9.06
2018-12-12T08:56:04.452Z,9.28
2018-12-12T08:58:33.626Z,9.31
2018-12-12T09:01:03.000Z,9.36
2018-12-12T09:03:32.100Z,9.48
2018-12-12T09:06:01.175Z,9.48
2018-12-12T09:08:33.463Z,9.45
2018-12-12T09:11:03.105Z,9.39
2018-12-12T09:13:32.790Z,9.43
2018-12-12T09:16:02.097Z,9.37
2018-12-12T09:18:31.398Z,9.34
2018-12-12T09:21:01.549Z,9.36
2018-12-12T09:23:38.312Z,9.15
2018-12-12T09:26:08.793Z,9.01
2018-12-12T09:28:39.799Z,9.15
2018-12-12T09:31:11.736Z,9.28
2018-12-12T09:33:42.376Z,9.47
2018-12-12T09:36:15.458Z,9.55
2018-12-12T09:38:45.228Z,9.62
2018-12-12T09:41:15.963Z,9.52
2018-12-12T09:43:46.474Z,9.42
2018-12-12T09:46:16.058Z,9.49
2018-12-12T09:48:45.204Z,8.78
2018-12-12T09:51:14.411Z,8.39
2018-12-12T09:53:43.769Z,8.33
2018-12-12T09:56:13.139Z,8.61
2018-12-12T09:58:43.535Z,8.81
2018-12-12T10:01:14.359Z,8.93
2018-12-12T10:03:43.741Z,8.68
2018-12-12T10:06:16.514Z,8.82
2018-12-12T10:08:48.086Z,9.07
2018-12-12T10:11:17.621Z,9.19
2018-12-12T10:13:47.680Z,9.29
2018-12-12T10:16:17.321Z,9.16
2018-12-12T10:18:47.692Z,9.17
2018-12-12T10:21:18.125Z,9.22
2018-12-12T10:23:48.144Z,9.24
2018-12-12T10:26:20.152Z,9.40
2018-12-12T10:28:51.257Z,9.40
2018-12-12T10:31:20.504Z,9.08
2018-12-12T10:33:49.867Z,9.07
2018-12-12T10:36:19.202Z,9.18
2018-12-12T10:38:48.515Z,9.32
2018-12-12T10:41:17.748Z,9.40
2018-12-12T10:43:47.192Z,9.33
2018-12-12T10:46:16.640Z,9.21
2018-12-12T10:48:46.017Z,9.25
2018-12-12T10:51:15.207Z,9.22
2018-12-12T10:53:44.478Z,9.11
2018-12-12T10:56:13.699Z,9.23
2018-12-12T10:58:42.890Z,9.10
2018-12-12T11:01:17.032Z,9.07
2018-12-12T11:03:46.367Z,9.21
2018-12-12T11:06:15.712Z,9.32
2018-12-12T11:08:46.101Z,9.28
2018-12-12T11:11:15.515Z,9.19
2018-12-12T11:13:44.828Z,9.16
2018-12-12T11:16:14.113Z,9.05
2018-12-12T11:18:43.508Z,8.90
2018-12-12T11:21:12.860Z,9.01
2018-12-12T11:23:42.348Z,9.17
2018-12-12T11:26:11.649Z,9.19
2018-12-12T11:28:40.794Z,9.14
2018-12-12T11:31:10.067Z,9.19
2018-12-12T11:33:39.272Z,9.31
2018-12-12T11:36:08.422Z,9.33
2018-12-12T11:38:37.737Z,9.48
2018-12-12T11:41:07.088Z,9.52
2018-12-12T11:43:36.644Z,9.66
2018-12-12T11:46:06.147Z,9.55
2018-12-12T11:48:35.485Z,9.64
2018-12-12T11:51:04.692Z,9.80
2018-12-12T11:53:33.904Z,9.98
2018-12-12T11:56:03.524Z,9.40
2018-12-12T11:58:32.994Z,9.27
2018-12-12T12:01:02.345Z,9.22
2018-12-12T12:03:31.943Z,9.56
2018-12-12T12:06:01.207Z,9.60
2018-12-12T12:08:30.632Z,9.76
2018-12-12T12:11:00.069Z,10.00
2018-12-12T12:13:29.688Z,10.11
2018-12-12T12:15:59.172Z,10.24
2018-12-12T12:18:28.731Z,10.21
2018-12-12T12:20:58.080Z,10.22
2018-12-12T12:23:27.603Z,10.23
2018-12-12T12:25:56.976Z,10.18
2018-12-12T12:28:26.311Z,10.21
2018-12-12T12:30:55.815Z,10.13
2018-12-12T12:33:25.368Z,10.05
2018-12-12T12:35:54.665Z,9.92
2018-12-12T12:38:24.064Z,9.84
2018-12-12T12:40:53.300Z,9.70
2018-12-12T12:43:22.817Z,9.49
2018-12-12T12:45:52.339Z,9.53
2018-12-12T12:48:21.688Z,9.61
2018-12-12T12:50:51.231Z,9.74
2018-12-12T12:53:21.498Z,9.69
2018-12-12T12:55:52.433Z,9.48
2018-12-12T12:58:21.995Z,9.08
2018-12-12T13:00:51.489Z,9.32
2018-12-12T13:03:20.884Z,9.32
2018-12-12T13:05:50.357Z,9.29
2018-12-12T13:08:19.663Z,9.38
2018-12-12T13:10:49.014Z,9.29
2018-12-12T13:13:18.922Z,9.17
2018-12-12T13:15:48.559Z,9.16
2018-12-12T13:18:17.924Z,9.30
2018-12-12T13:20:47.228Z,9.53
2018-12-12T13:23:16.577Z,9.49
2018-12-12T13:25:45.980Z,9.32
2018-12-12T13:28:16.728Z,9.47
2018-12-12T13:30:46.564Z,9.97
2018-12-12T13:33:17.731Z,10.13
2018-12-12T13:35:49.276Z,10.02
2018-12-12T13:38:20.067Z,9.83
2018-12-12T13:40:50.251Z,9.88
2018-12-12T13:43:19.841Z,10.00
2018-12-12T13:45:49.415Z,10.42
2018-12-12T13:48:18.778Z,11.61
2018-12-12T13:50:49.275Z,11.58
2018-12-12T13:53:18.590Z,11.84
2018-12-12T13:55:48.066Z,12.42
2018-12-12T13:58:17.430Z,12.48
2018-12-12T14:00:46.812Z,12.22
2018-12-12T14:03:16.211Z,11.21
2018-12-12T14:05:45.560Z,11.77
2018-12-12T14:08:14.949Z,12.36
2018-12-12T14:10:44.099Z,11.71
2018-12-12T14:13:13.401Z,11.12
2018-12-12T14:15:42.760Z,11.16
2018-12-12T14:18:12.004Z,11.48
2018-12-12T14:20:41.366Z,11.93
2018-12-12T14:23:11.424Z,12.09
2018-12-12T14:25:41.576Z,12.08
2018-12-12T14:28:11.553Z,12.15
2018-12-12T14:30:40.956Z,12.15
2018-12-12T14:33:10.464Z,12.07
2018-12-12T14:35:40.343Z,12.21
2018-12-12T14:38:09.879Z,12.30
2018-12-12T14:40:39.072Z,12.15
2018-12-12T14:43:08.487Z,12.19
2018-12-12T14:45:38.259Z,11.56
2018-12-12T14:48:08.209Z,10.85
2018-12-12T14:50:37.914Z,10.43
2018-12-12T14:53:07.220Z,10.05
2018-12-12T14:55:36.829Z,9.70
2018-12-12T14:58:07.185Z,9.51
2018-12-12T15:00:37.600Z,9.46
2018-12-12T15:03:07.912Z,9.39
2018-12-12T15:05:38.280Z,9.25
2018-12-12T15:08:08.643Z,8.91
2018-12-12T15:10:38.294Z,8.77
2018-12-12T15:13:07.904Z,8.58
2018-12-12T15:15:37.803Z,8.50
2018-12-12T15:18:07.335Z,8.61
2018-12-12T15:20:37.037Z,8.70
2018-12-12T15:23:06.277Z,8.47
2018-12-12T15:25:35.660Z,8.52
2018-12-12T15:28:04.976Z,8.36
2018-12-12T15:30:34.121Z,8.23
2018-12-12T15:33:03.484Z,8.18
2018-12-12T15:35:32.831Z,8.11
2018-12-12T15:38:02.161Z,8.00
2018-12-12T15:40:31.666Z,7.96
2018-12-12T15:43:01.283Z,8.05
2018-12-12T15:45:30.720Z,8.08
2018-12-12T15:48:04.005Z,8.13
2018-12-12T15:50:33.906Z,8.10
2018-12-12T15:53:03.348Z,8.17
2018-12-12T15:55:32.857Z,8.09
2018-12-12T15:58:02.036Z,8.13
2018-12-12T16:00:33.077Z,8.10
2018-12-12T16:03:02.715Z,7.93
2018-12-12T16:05:32.144Z,7.91
2018-12-12T16:08:01.511Z,7.98
2018-12-12T16:10:30.879Z,7.89
2018-12-12T16:13:00.369Z,7.88
2018-12-12T16:15:29.776Z,7.88
2018-12-12T16:17:59.287Z,7.93
2018-12-12T16:20:28.695Z,8.06
2018-12-12T16:22:58.051Z,7.97
2018-12-12T16:25:27.342Z,7.94
2018-12-12T16:27:56.776Z,7.98
2018-12-12T16:30:26.321Z,8.00
2018-12-12T16:32:55.401Z,7.89
2018-12-12T16:35:24.613Z,7.97
2018-12-12T16:37:53.892Z,8.03
2018-12-12T16:40:23.116Z,7.96
2018-12-12T16:42:52.424Z,7.81
2018-12-12T16:45:21.669Z,7.89
2018-12-12T16:47:51.046Z,7.62
2018-12-12T16:50:20.496Z,7.68
2018-12-12T16:52:49.781Z,7.72
2018-12-12T16:55:19.648Z,7.74
2018-12-12T16:57:49.330Z,7.67
2018-12-12T17:00:18.776Z,7.64
2018-12-12T17:02:48.426Z,7.54
2018-12-12T17:05:17.692Z,7.59
2018-12-12T17:07:47.192Z,7.73
2018-12-12T17:10:16.495Z,7.67
2018-12-12T17:12:45.903Z,7.61
2018-12-12T17:15:15.144Z,7.76
2018-12-12T17:17:44.710Z,7.76
2018-12-12T17:20:14.633Z,7.76
2018-12-12T17:22:44.202Z,7.89
2018-12-12T17:25:13.466Z,7.93
2018-12-12T17:27:49.969Z,7.93
2018-12-12T17:30:19.335Z,7.82
2018-12-12T17:32:48.924Z,7.62
2018-12-12T17:35:18.373Z,7.66
2018-12-12T17:37:47.783Z,7.78
2018-12-12T17:40:17.149Z,7.97
2018-12-12T17:42:46.276Z,8.08
2018-12-12T17:45:15.633Z,7.90
2018-12-12T17:47:44.704Z,7.60
2018-12-12T17:50:13.866Z,7.53
2018-12-12T17:52:44.918Z,7.28
2018-12-12T17:55:14.200Z,6.88
2018-12-12T17:57:43.827Z,6.76
2018-12-12T18:00:13.244Z,6.57
2018-12-12T18:02:42.536Z,6.70
2018-12-12T18:05:15.212Z,6.71
2018-12-12T18:07:43.371Z,6.45
2018-12-12T18:10:12.504Z,6.80
2018-12-12T18:12:41.651Z,7.03
2018-12-12T18:15:10.871Z,7.24
2018-12-12T18:17:39.950Z,7.21
2018-12-12T18:20:09.112Z,7.12
2018-12-12T18:22:38.467Z,6.95
2018-12-12T18:25:07.764Z,6.90
2018-12-12T18:27:36.845Z,6.92
2018-12-12T18:30:07.009Z,6.80
2018-12-12T18:32:36.120Z,6.66
2018-12-12T18:35:05.531Z,6.65
2018-12-12T18:37:34.765Z,6.77
2018-12-12T18:40:04.224Z,6.82
2018-12-12T18:42:33.356Z,6.58
2018-12-12T18:45:02.639Z,6.76
2018-12-12T18:47:31.882Z,6.78
2018-12-12T18:50:00.909Z,6.64
2018-12-12T18:52:30.089Z,6.41
2018-12-12T18:54:59.421Z,6.28
2018-12-12T18:57:28.675Z,6.14
2018-12-12T18:59:57.700Z,6.06
2018-12-12T19:02:26.911Z,5.95
2018-12-12T19:04:56.084Z,6.00
2018-12-12T19:07:25.246Z,6.03
2018-12-12T19:09:54.653Z,5.98
2018-12-12T19:12:23.933Z,5.92
2018-12-12T19:14:58.411Z,5.89
2018-12-12T19:17:27.542Z,5.81
2018-12-12T19:19:56.822Z,5.63
2018-12-12T19:22:26.007Z,5.69
2018-12-12T19:24:55.181Z,5.78
2018-12-12T19:27:24.585Z,5.83
2018-12-12T19:29:53.574Z,5.85
2018-12-12T19:32:22.879Z,5.76
2018-12-12T19:34:52.234Z,5.55
2018-12-12T19:37:21.372Z,5.61
2018-12-12T19:39:50.934Z,5.50
2018-12-12T19:42:20.624Z,5.33
2018-12-12T19:44:49.794Z,5.19
2018-12-12T19:47:18.972Z,5.25
2018-12-12T19:49:48.163Z,5.22
2018-12-12T19:52:17.383Z,5.18
2018-12-12T19:54:46.614Z,5.21
2018-12-12T19:57:15.844Z,5.17
2018-12-12T19:59:45.129Z,5.21
2018-12-12T20:02:14.293Z,5.24
2018-12-12T20:04:43.372Z,5.16
2018-12-12T20:07:12.387Z,5.11
2018-12-12T20:09:41.749Z,5.08
2018-12-12T20:12:10.967Z,5.17
2018-12-12T20:14:40.072Z,5.17
2018-12-12T20:17:09.226Z,5.33
2018-12-12T20:19:38.493Z,5.37
2018-12-12T20:22:08.216Z,5.27
2018-12-12T20:24:37.629Z,5.53
2018-12-12T20:27:06.874Z,5.71
2018-12-12T20:29:36.257Z,5.86
2018-12-12T20:32:05.559Z,5.98
2018-12-12T20:34:35.005Z,6.02
2018-12-12T20:37:04.417Z,6.08
2018-12-12T20:39:33.561Z,6.11
2018-12-12T20:42:03.154Z,6.14
2018-12-12T20:44:32.459Z,6.06
2018-12-12T20:47:01.684Z,5.98
2018-12-12T20:49:32.696Z,5.78
2018-12-12T20:52:01.932Z,5.68
2018-12-12T20:54:31.584Z,5.62
2018-12-12T20:57:06.939Z,5.54
2018-12-12T20:59:36.484Z,5.59
2018-12-12T21:02:05.809Z,5.70
2018-12-12T21:04:35.524Z,5.71
2018-12-12T21:07:05.214Z,5.74
2018-12-12T21:09:34.778Z,5.75
2018-12-12T21:12:03.860Z,5.68
2018-12-12T21:14:33.318Z,5.72
2018-12-12T21:17:03.076Z,5.81
2018-12-12T21:19:32.526Z,5.86
2018-12-12T21:22:01.665Z,5.97
2018-12-12T21:24:31.064Z,6.00
2018-12-12T21:27:00.431Z,6.09
2018-12-12T21:29:30.481Z,6.19
2018-12-12T21:31:59.851Z,6.28
2018-12-12T21:34:29.255Z,6.35
2018-12-12T21:36:58.496Z,6.31
2018-12-12T21:39:28.314Z,6.25
2018-12-12T21:41:57.909Z,6.12
2018-12-12T21:44:27.654Z,6.10
2018-12-12T21:46:57.135Z,6.30
2018-12-12T21:49:26.603Z,6.49
2018-12-12T21:51:55.852Z,6.62
2018-12-12T21:54:24.962Z,6.76
2018-12-12T21:56:54.136Z,6.82
2018-12-12T21:59:23.348Z,7.00
2018-12-12T22:01:52.517Z,7.04
2018-12-12T22:04:21.932Z,7.11
2018-12-12T22:06:51.344Z,7.19
2018-12-12T22:09:20.728Z,7.36
2018-12-12T22:11:50.073Z,7.15
2018-12-12T22:14:19.333Z,7.14
2018-12-12T22:16:48.834Z,7.13
2018-12-12T22:19:18.237Z,6.99
2018-12-12T22:21:47.539Z,7.02
2018-12-12T22:24:16.936Z,6.96
2018-12-12T22:26:46.444Z,6.98
2018-12-12T22:29:15.764Z,7.09
2018-12-12T22:31:45.157Z,7.08
2018-12-12T22:34:14.512Z,7.12
2018-12-12T22:36:43.780Z,7.14
2018-12-12T22:39:12.864Z,7.13
2018-12-12T22:41:42.201Z,7.18
2018-12-12T22:44:11.583Z,7.11
2018-12-12T22:46:40.872Z,7.13
2018-12-12T22:49:10.072Z,7.29
2018-12-12T22:51:39.412Z,7.31
2018-12-12T22:54:08.648Z,7.39
2018-12-12T22:56:37.916Z,7.40
2018-12-12T22:59:07.041Z,7.45
2018-12-12T23:01:36.463Z,7.51
2018-12-12T23:04:05.699Z,7.43
2018-12-12T23:06:34.815Z,7.38
2018-12-12T23:09:04.384Z,7.31
2018-12-12T23:11:33.876Z,7.29
2018-12-12T23:14:03.276Z,7.24
2018-12-12T23:16:32.620Z,7.21
2018-12-12T23:19:01.990Z,7.29
2018-12-12T23:21:31.589Z,7.31
2018-12-12T23:24:00.935Z,7.32
2018-12-12T23:26:30.072Z,7.30
2018-12-12T23:28:59.547Z,7.31
2018-12-12T23:31:28.699Z,7.30
2018-12-12T23:33:58.031Z,7.34
2018-12-12T23:36:27.436Z,7.39
2018-12-12T23:38:56.855Z,7.30
2018-12-12T23:41:26.013Z,7.10
2018-12-12T23:43:55.547Z,6.93
2018-12-12T23:46:24.663Z,6.80
2018-12-12T23:48:54.340Z,6.48
2018-12-12T23:51:23.401Z,6.19
2018-12-12T23:53:52.536Z,6.00
2018-12-12T23:56:21.863Z,5.87
2018-12-12T23:58:51.078Z,5.78
